Time;durP1;ratioP1;P1;durP2;ratioP2;P2;SDS_P1;SDS_P2;PMS_P1;PMS_P2;Temp;Humidity;BMP_temperature;BMP_pressure;BME280_temperature;BME280_humidity;BME280_pressure;Samples;Min_cycle;Max_cycle;Signal;HPM_P1;HPM_P2
2023/07/25 00:02:22;;;;;;;;;;;14.90;99.90;;;;;;5035742;28;20330;-86
2023/07/25 00:04:48;;;;;;;;;;;14.90;99.90;;;;;;5053053;28;20404;-86
2023/07/25 00:07:13;;;;;;;;;;;15.00;99.90;;;;;;5035743;28;20375;-85
2023/07/25 00:09:39;;;;;;;;;;;15.00;99.90;;;;;;5035851;28;20374;-86
2023/07/25 00:12:05;;;;;;;;;;;15.00;99.90;;;;;;5052420;28;19915;-86
2023/07/25 00:14:32;;;;;;;;;;;15.00;99.90;;;;;;5053369;28;19908;-86
2023/07/25 00:16:57;;;;;;;;;;;15.00;99.90;;;;;;5035416;28;19913;-85
2023/07/25 00:19:23;;;;;;;;;;;15.00;99.90;;;;;;5035469;28;19917;-86
2023/07/25 00:21:49;;;;;;;;;;;15.00;99.90;;;;;;5035725;28;19916;-85
2023/07/25 00:24:14;;;;;;;;;;;15.10;99.90;;;;;;5035427;28;19909;-85
2023/07/25 00:26:40;;;;;;;;;;;15.00;99.90;;;;;;5035636;28;20390;-85
2023/07/25 00:29:05;;;;;;;;;;;14.90;99.90;;;;;;5031471;28;20336;-85
2023/07/25 00:31:32;;;;;;;;;;;14.80;99.90;;;;;;5065882;28;19917;-86
2023/07/25 00:33:57;;;;;;;;;;;14.80;99.90;;;;;;5049519;28;19930;-85
2023/07/25 00:36:23;;;;;;;;;;;14.80;99.90;;;;;;5050267;28;19917;-85
2023/07/25 00:38:48;;;;;;;;;;;14.80;99.90;;;;;;5050980;28;20122;-86
2023/07/25 00:41:14;;;;;;;;;;;14.80;99.90;;;;;;5045431;28;19917;-86
2023/07/25 00:43:40;;;;;;;;;;;14.80;99.90;;;;;;5050251;28;20465;-86
2023/07/25 00:46:05;;;;;;;;;;;14.80;99.90;;;;;;5034405;28;19955;-86
2023/07/25 00:48:32;;;;;;;;;;;14.80;99.90;;;;;;5033707;28;19916;-85
2023/07/25 00:50:57;;;;;;;;;;;14.90;99.90;;;;;;5030811;28;19912;-85
2023/07/25 00:53:23;;;;;;;;;;;14.90;99.90;;;;;;5049864;28;19909;-85
2023/07/25 00:55:50;;;;;;;;;;;14.90;99.90;;;;;;5033736;28;20142;-86
2023/07/25 00:58:16;;;;;;;;;;;14.90;99.90;;;;;;5047737;28;20023;-85
2023/07/25 01:00:42;;;;;;;;;;;14.90;99.90;;;;;;5033710;28;19915;-86
2023/07/25 01:03:40;;;;;;;;;;;14.90;99.90;;;;;;5034432;28;19908;-86
2023/07/25 01:06:11;;;;;;;;;;;14.80;99.90;;;;;;5030737;28;19912;-85
2023/07/25 01:08:54;;;;;;;;;;;14.80;99.90;;;;;;5035582;28;19908;-85
2023/07/25 01:11:20;;;;;;;;;;;14.60;99.90;;;;;;5034823;28;19912;-85
2023/07/25 01:13:46;;;;;;;;;;;14.40;99.90;;;;;;5035128;28;19904;-85
2023/07/25 01:16:16;;;;;;;;;;;14.30;99.90;;;;;;5035017;28;19913;-85
2023/07/25 01:18:42;;;;;;;;;;;14.40;99.90;;;;;;5043892;28;19961;-86
2023/07/25 01:21:08;;;;;;;;;;;14.30;99.90;;;;;;5034944;28;19909;-86
2023/07/25 01:23:33;;;;;;;;;;;14.40;99.90;;;;;;5051436;28;20862;-85
2023/07/25 01:25:59;;;;;;;;;;;14.40;99.90;;;;;;5051582;28;19939;-86
2023/07/25 01:28:25;;;;;;;;;;;14.40;99.90;;;;;;5051246;28;20364;-85
2023/07/25 01:30:51;;;;;;;;;;;14.30;99.90;;;;;;5034492;28;19916;-85
2023/07/25 01:33:16;;;;;;;;;;;14.30;99.90;;;;;;5052714;28;20352;-85
2023/07/25 01:35:42;;;;;;;;;;;14.40;99.90;;;;;;5034288;28;20019;-86
2023/07/25 01:38:07;;;;;;;;;;;14.40;99.90;;;;;;5052309;28;19905;-85
2023/07/25 01:40:33;;;;;;;;;;;14.50;99.90;;;;;;5051193;28;20002;-85
2023/07/25 01:42:58;;;;;;;;;;;14.50;99.90;;;;;;5034856;28;19909;-85
2023/07/25 01:45:24;;;;;;;;;;;14.50;99.90;;;;;;5034674;28;19959;-85
2023/07/25 01:47:50;;;;;;;;;;;14.60;99.90;;;;;;5051083;28;20345;-85
2023/07/25 01:50:16;;;;;;;;;;;14.60;99.90;;;;;;5034707;28;19958;-86
2023/07/25 01:52:41;;;;;;;;;;;14.60;99.90;;;;;;5050909;28;19904;-85
2023/07/25 01:55:07;;;;;;;;;;;14.70;99.90;;;;;;5034723;28;20004;-85
2023/07/25 01:57:33;;;;;;;;;;;14.70;99.90;;;;;;5051290;28;19935;-85
2023/07/25 01:59:58;;;;;;;;;;;14.70;99.90;;;;;;5051639;28;19999;-86
2023/07/25 02:02:49;;;;;;;;;;;14.70;99.90;;;;;;5084866;28;19908;-86
2023/07/25 02:05:15;;;;;;;;;;;14.70;99.90;;;;;;5051280;28;20352;-85
2023/07/25 02:07:40;;;;;;;;;;;14.80;99.90;;;;;;5038261;28;19916;-86
2023/07/25 02:10:06;;;;;;;;;;;14.80;99.90;;;;;;5055172;28;19940;-86
2023/07/25 02:12:32;;;;;;;;;;;14.80;99.90;;;;;;5033411;28;20362;-86
2023/07/25 02:14:57;;;;;;;;;;;14.80;99.90;;;;;;5055047;28;20483;-85
2023/07/25 02:17:23;;;;;;;;;;;14.80;99.90;;;;;;5071459;28;19920;-85
2023/07/25 02:19:49;;;;;;;;;;;14.80;99.90;;;;;;5038208;28;19936;-86
2023/07/25 02:22:14;;;;;;;;;;;14.80;99.90;;;;;;5037995;28;19909;-85
2023/07/25 02:24:40;;;;;;;;;;;14.80;99.90;;;;;;5054640;28;19909;-85
2023/07/25 02:27:06;;;;;;;;;;;14.80;99.90;;;;;;5038104;28;20419;-85
2023/07/25 02:29:31;;;;;;;;;;;14.80;99.90;;;;;;5054374;28;19908;-86
2023/07/25 02:31:57;;;;;;;;;;;14.80;99.90;;;;;;5038070;28;19915;-86
2023/07/25 02:34:22;;;;;;;;;;;14.90;99.90;;;;;;5054633;28;20042;-86
2023/07/25 02:36:49;;;;;;;;;;;14.90;99.90;;;;;;5037864;28;19916;-86
2023/07/25 02:39:15;;;;;;;;;;;14.80;99.90;;;;;;5055000;28;19955;-86
2023/07/25 02:41:40;;;;;;;;;;;14.80;99.90;;;;;;5037971;28;19909;-86
2023/07/25 02:44:06;;;;;;;;;;;14.70;99.90;;;;;;5053789;28;20276;-86
2023/07/25 02:46:31;;;;;;;;;;;14.70;99.90;;;;;;5037792;28;19909;-86
2023/07/25 02:48:57;;;;;;;;;;;14.70;99.90;;;;;;5037548;28;19908;-86
2023/07/25 02:51:23;;;;;;;;;;;14.60;99.90;;;;;;5037556;28;19908;-86
2023/07/25 02:53:48;;;;;;;;;;;14.60;99.90;;;;;;5054074;28;20569;-86
2023/07/25 02:56:14;;;;;;;;;;;14.60;99.90;;;;;;5053959;28;19919;-86
2023/07/25 02:58:40;;;;;;;;;;;14.60;99.90;;;;;;5054132;28;20451;-86
2023/07/25 03:01:05;;;;;;;;;;;14.60;99.90;;;;;;5037179;28;19915;-86
2023/07/25 03:03:31;;;;;;;;;;;14.60;99.90;;;;;;5053892;28;19909;-86
2023/07/25 03:05:57;;;;;;;;;;;14.60;99.90;;;;;;5036758;28;19904;-86
2023/07/25 03:08:22;;;;;;;;;;;14.70;99.90;;;;;;5070522;28;20343;-86
2023/07/25 03:10:48;;;;;;;;;;;14.70;99.90;;;;;;5087196;28;19952;-85
2023/07/25 03:13:14;;;;;;;;;;;14.60;99.90;;;;;;5053152;28;19919;-84
2023/07/25 03:15:39;;;;;;;;;;;14.60;99.90;;;;;;5035131;28;19974;-84
2023/07/25 03:18:05;;;;;;;;;;;14.50;99.90;;;;;;5053097;28;19909;-85
2023/07/25 03:20:31;;;;;;;;;;;14.50;99.90;;;;;;5052766;28;20387;-84
2023/07/25 03:22:56;;;;;;;;;;;14.40;99.90;;;;;;5086838;28;19938;-84
2023/07/25 03:25:22;;;;;;;;;;;14.50;99.90;;;;;;5053092;28;19908;-84
2023/07/25 03:27:48;;;;;;;;;;;14.40;99.90;;;;;;5052754;28;19905;-84
2023/07/25 03:30:13;;;;;;;;;;;14.30;99.90;;;;;;5052953;28;19916;-85
2023/07/25 03:32:39;;;;;;;;;;;14.30;99.90;;;;;;5053011;28;19913;-84
2023/07/25 03:35:06;;;;;;;;;;;14.20;99.90;;;;;;5053081;28;19913;-84
2023/07/25 03:37:32;;;;;;;;;;;14.20;99.90;;;;;;5065957;28;19912;-84
2023/07/25 03:39:57;;;;;;;;;;;14.10;99.90;;;;;;5035948;28;19912;-85
2023/07/25 03:42:24;;;;;;;;;;;14.00;99.90;;;;;;5052996;28;20077;-85
2023/07/25 03:45:08;;;;;;;;;;;13.90;99.90;;;;;;5070223;28;19940;-85
2023/07/25 03:47:34;;;;;;;;;;;13.90;99.90;;;;;;5039923;28;19909;-86
2023/07/25 03:49:59;;;;;;;;;;;13.80;99.90;;;;;;5053219;28;19940;-86
2023/07/25 03:52:25;;;;;;;;;;;13.80;99.90;;;;;;5086631;28;19912;-86
2023/07/25 03:54:50;;;;;;;;;;;13.70;99.90;;;;;;5053094;28;20356;-85
2023/07/25 03:57:16;;;;;;;;;;;13.70;99.90;;;;;;5086839;28;19908;-86
2023/07/25 04:00:04;;;;;;;;;;;13.70;99.90;;;;;;5036320;28;19909;-86
2023/07/25 04:02:37;;;;;;;;;;;13.70;99.90;;;;;;5053243;28;19908;-86
2023/07/25 04:05:03;;;;;;;;;;;13.70;99.90;;;;;;5036521;28;19908;-85
2023/07/25 04:07:28;;;;;;;;;;;13.70;99.90;;;;;;5036686;28;19916;-86
2023/07/25 04:09:54;;;;;;;;;;;13.80;99.90;;;;;;5053197;28;19991;-85
2023/07/25 04:12:20;;;;;;;;;;;13.90;99.90;;;;;;5036749;28;19909;-85
2023/07/25 04:14:45;;;;;;;;;;;13.90;99.90;;;;;;5036169;28;20000;-86
2023/07/25 04:17:11;;;;;;;;;;;13.90;99.90;;;;;;5036277;28;19909;-86
2023/07/25 04:19:36;;;;;;;;;;;13.90;99.90;;;;;;5035894;28;20256;-85
2023/07/25 04:22:02;;;;;;;;;;;13.90;99.90;;;;;;5052879;28;19908;-86
2023/07/25 04:24:28;;;;;;;;;;;13.90;99.90;;;;;;5036128;28;19940;-86
2023/07/25 04:26:53;;;;;;;;;;;13.90;99.90;;;;;;5052223;28;19917;-86
2023/07/25 04:29:19;;;;;;;;;;;13.90;99.90;;;;;;5035984;28;20271;-86
2023/07/25 04:31:44;;;;;;;;;;;13.80;99.90;;;;;;5052639;28;20007;-87
2023/07/25 04:34:41;;;;;;;;;;;13.90;99.90;;;;;;5035774;28;19909;-85
2023/07/25 04:37:06;;;;;;;;;;;13.90;99.90;;;;;;5052153;28;19913;-86
2023/07/25 04:39:41;;;;;;;;;;;13.90;99.90;;;;;;5053045;28;19909;-86
2023/07/25 04:42:28;;;;;;;;;;;13.90;99.90;;;;;;5035852;28;19912;-86
2023/07/25 04:44:54;;;;;;;;;;;14.00;99.90;;;;;;5052413;28;19909;-85
2023/07/25 04:47:19;;;;;;;;;;;14.00;99.90;;;;;;5085919;28;20334;-86
2023/07/25 04:49:45;;;;;;;;;;;14.10;99.90;;;;;;5035863;28;20321;-86
2023/07/25 04:52:10;;;;;;;;;;;14.10;99.90;;;;;;5086186;28;19908;-86
2023/07/25 04:54:43;;;;;;;;;;;14.20;99.90;;;;;;5035848;28;19912;-85
2023/07/25 04:57:09;;;;;;;;;;;14.20;99.90;;;;;;5052330;28;19984;-86
2023/07/25 04:59:34;;;;;;;;;;;14.20;99.90;;;;;;5051847;28;19967;-85
2023/07/25 05:02:00;;;;;;;;;;;14.20;99.90;;;;;;5051950;28;20356;-86
2023/07/25 05:04:25;;;;;;;;;;;14.20;99.90;;;;;;5035105;28;19995;-85
2023/07/25 05:06:52;;;;;;;;;;;14.30;99.90;;;;;;5051865;28;19908;-85
2023/07/25 05:09:19;;;;;;;;;;;14.40;99.90;;;;;;5035588;28;19995;-85
2023/07/25 05:12:13;;;;;;;;;;;14.50;99.90;;;;;;5051650;28;19912;-85
2023/07/25 05:14:39;;;;;;;;;;;14.40;99.90;;;;;;5034840;28;19916;-85
2023/07/25 05:17:04;;;;;;;;;;;14.50;99.90;;;;;;5052104;28;20348;-85
2023/07/25 05:19:30;;;;;;;;;;;14.50;99.90;;;;;;5052497;28;20474;-86
2023/07/25 05:21:55;;;;;;;;;;;14.60;99.90;;;;;;5051953;28;19944;-86
2023/07/25 05:24:21;;;;;;;;;;;14.60;99.90;;;;;;5035635;28;20359;-86
2023/07/25 05:26:47;;;;;;;;;;;14.60;99.90;;;;;;5051782;28;20119;-86
2023/07/25 05:29:12;;;;;;;;;;;14.60;99.90;;;;;;5035430;28;19909;-85
2023/07/25 05:31:38;;;;;;;;;;;14.50;99.90;;;;;;5035630;28;19938;-86
2023/07/25 05:34:03;;;;;;;;;;;14.50;99.90;;;;;;5052254;28;19913;-86
2023/07/25 05:36:29;;;;;;;;;;;14.50;99.90;;;;;;5052291;28;20019;-86
2023/07/25 05:38:54;;;;;;;;;;;14.40;99.90;;;;;;5037170;28;20025;-86
2023/07/25 05:41:20;;;;;;;;;;;14.40;99.90;;;;;;5056223;28;20302;-86
2023/07/25 05:43:46;;;;;;;;;;;14.40;99.90;;;;;;5039347;28;19913;-87
2023/07/25 05:46:13;;;;;;;;;;;14.40;99.90;;;;;;5039681;28;19913;-86
2023/07/25 05:48:39;;;;;;;;;;;14.50;99.90;;;;;;5055809;28;19909;-86
2023/07/25 05:51:04;;;;;;;;;;;14.50;99.90;;;;;;5055910;28;20253;-87
2023/07/25 05:53:30;;;;;;;;;;;14.40;99.90;;;;;;5055955;28;19909;-87
2023/07/25 05:55:56;;;;;;;;;;;14.40;99.90;;;;;;5048287;28;19924;-86
2023/07/25 05:58:21;;;;;;;;;;;14.30;99.90;;;;;;5036825;28;19959;-87
2023/07/25 06:00:48;;;;;;;;;;;14.30;99.90;;;;;;5038143;28;19908;-88
2023/07/25 06:03:14;;;;;;;;;;;14.20;99.90;;;;;;5038693;28;19908;-88
2023/07/25 06:05:40;;;;;;;;;;;14.30;99.90;;;;;;5034973;28;19912;-87
2023/07/25 06:08:06;;;;;;;;;;;14.30;99.90;;;;;;5038608;28;20260;-87
2023/07/25 06:10:32;;;;;;;;;;;14.30;99.90;;;;;;5054937;28;20298;-87
2023/07/25 06:12:58;;;;;;;;;;;14.30;99.90;;;;;;5038788;28;19905;-87
2023/07/25 06:15:24;;;;;;;;;;;14.20;99.90;;;;;;5055146;28;19966;-87
2023/07/25 06:17:50;;;;;;;;;;;14.30;99.90;;;;;;5038249;28;19966;-87
2023/07/25 06:20:15;;;;;;;;;;;14.30;99.90;;;;;;5037040;28;19913;-87
2023/07/25 06:22:41;;;;;;;;;;;14.30;99.90;;;;;;5042983;28;19916;-87
2023/07/25 06:25:12;;;;;;;;;;;14.30;99.90;;;;;;5054488;28;20569;-86
2023/07/25 06:27:38;;;;;;;;;;;14.40;99.90;;;;;;5034415;28;19913;-87
2023/07/25 06:30:04;;;;;;;;;;;14.40;99.90;;;;;;5069397;28;19913;-86
2023/07/25 06:32:30;;;;;;;;;;;14.40;99.90;;;;;;5065244;28;19960;-86
2023/07/25 06:34:56;;;;;;;;;;;14.50;99.90;;;;;;5054322;28;19913;-87
2023/07/25 06:37:23;;;;;;;;;;;14.50;99.90;;;;;;5048685;28;19913;-87
2023/07/25 06:39:48;;;;;;;;;;;14.60;99.90;;;;;;5078547;28;19918;-86
2023/07/25 06:42:14;;;;;;;;;;;14.60;99.90;;;;;;5037564;28;19953;-87
2023/07/25 06:44:41;;;;;;;;;;;14.50;99.90;;;;;;5054258;28;20317;-86
2023/07/25 06:47:07;;;;;;;;;;;14.50;99.90;;;;;;5050792;28;20067;-86
2023/07/25 06:49:33;;;;;;;;;;;14.50;99.90;;;;;;5048560;28;19952;-86
2023/07/25 06:52:00;;;;;;;;;;;14.50;99.90;;;;;;5035934;28;19990;-85
2023/07/25 06:54:26;;;;;;;;;;;14.50;99.90;;;;;;5052326;28;20296;-86
2023/07/25 06:56:51;;;;;;;;;;;14.60;99.90;;;;;;5050441;28;19912;-86
2023/07/25 06:59:17;;;;;;;;;;;14.60;99.90;;;;;;5036458;28;19909;-86
2023/07/25 07:01:43;;;;;;;;;;;14.60;99.90;;;;;;5068685;28;20011;-87
2023/07/25 07:04:09;;;;;;;;;;;14.60;99.90;;;;;;5034107;28;19956;-86
2023/07/25 07:06:34;;;;;;;;;;;14.70;99.90;;;;;;5053359;28;19909;-86
2023/07/25 07:09:00;;;;;;;;;;;14.80;99.90;;;;;;5053471;28;19959;-87
2023/07/25 07:11:26;;;;;;;;;;;14.90;99.90;;;;;;5036302;28;19923;-84
2023/07/25 07:13:51;;;;;;;;;;;15.00;99.90;;;;;;5053198;28;19909;-86
2023/07/25 07:16:17;;;;;;;;;;;15.00;99.90;;;;;;5053373;28;19913;-87
2023/07/25 07:18:43;;;;;;;;;;;14.90;99.90;;;;;;5049598;28;20022;-86
2023/07/25 07:21:09;;;;;;;;;;;14.90;99.90;;;;;;5050311;28;20418;-86
2023/07/25 07:23:34;;;;;;;;;;;14.90;99.90;;;;;;5049150;28;20382;-86
2023/07/25 07:26:00;;;;;;;;;;;14.80;99.90;;;;;;5052651;28;19909;-85
2023/07/25 07:28:26;;;;;;;;;;;14.70;99.90;;;;;;5037064;28;19970;-85
2023/07/25 07:30:51;;;;;;;;;;;14.70;99.90;;;;;;5035828;28;20055;-86
2023/07/25 07:33:20;;;;;;;;;;;14.80;99.90;;;;;;5036010;28;19916;-87
2023/07/25 07:35:46;;;;;;;;;;;14.90;99.90;;;;;;5067138;28;20411;-86
2023/07/25 07:38:12;;;;;;;;;;;14.90;99.90;;;;;;5086188;28;20003;-86
2023/07/25 07:40:38;;;;;;;;;;;14.90;99.90;;;;;;5069744;28;20617;-86
2023/07/25 07:43:03;;;;;;;;;;;15.00;99.90;;;;;;5046151;28;19909;-86
2023/07/25 07:45:30;;;;;;;;;;;15.00;99.90;;;;;;5052195;28;19912;-86
2023/07/25 07:47:55;;;;;;;;;;;15.10;99.90;;;;;;5041411;28;19917;-86
2023/07/25 07:50:21;;;;;;;;;;;15.00;99.90;;;;;;5035926;28;19908;-86
2023/07/25 07:52:47;;;;;;;;;;;15.10;99.90;;;;;;5035998;28;19909;-86
2023/07/25 07:55:14;;;;;;;;;;;15.20;99.90;;;;;;5068266;28;19924;-87
2023/07/25 07:57:40;;;;;;;;;;;15.60;99.90;;;;;;5031741;28;19924;-86
2023/07/25 08:00:06;;;;;;;;;;;16.00;99.90;;;;;;5043993;28;19916;-87
2023/07/25 08:02:37;;;;;;;;;;;16.80;99.90;;;;;;5046142;28;20027;-86
2023/07/25 08:05:03;;;;;;;;;;;17.40;99.90;;;;;;5049936;28;20284;-86
2023/07/25 08:07:29;;;;;;;;;;;17.50;99.90;;;;;;5034987;28;20380;-86
2023/07/25 08:09:54;;;;;;;;;;;17.20;99.90;;;;;;5052639;28;20340;-86
2023/07/25 08:12:21;;;;;;;;;;;17.20;99.90;;;;;;5036628;28;19909;-86
2023/07/25 08:14:46;;;;;;;;;;;17.20;99.90;;;;;;5042221;28;20305;-85
2023/07/25 08:17:13;;;;;;;;;;;17.00;99.90;;;;;;5075872;28;19913;-86
2023/07/25 08:19:38;;;;;;;;;;;17.00;99.90;;;;;;5040334;28;20015;-86
2023/07/25 08:22:04;;;;;;;;;;;17.10;99.90;;;;;;5030299;28;20077;-86
2023/07/25 08:24:32;;;;;;;;;;;17.00;99.90;;;;;;5036148;28;20401;-86
2023/07/25 08:26:58;;;;;;;;;;;17.00;99.90;;;;;;5029933;28;19948;-86
2023/07/25 08:29:23;;;;;;;;;;;17.10;99.90;;;;;;5069567;28;19909;-86
2023/07/25 08:31:49;;;;;;;;;;;17.30;99.90;;;;;;5059312;28;20707;-85
2023/07/25 08:34:14;;;;;;;;;;;17.40;99.90;;;;;;5052400;28;19919;-86
2023/07/25 08:36:40;;;;;;;;;;;17.10;99.90;;;;;;5086584;28;19958;-86
2023/07/25 08:39:06;;;;;;;;;;;17.30;99.90;;;;;;5030792;28;20066;-86
2023/07/25 08:41:34;;;;;;;;;;;17.20;99.90;;;;;;5052747;28;20421;-86
2023/07/25 08:44:00;;;;;;;;;;;17.10;99.90;;;;;;5035910;28;19956;-86
2023/07/25 08:46:27;;;;;;;;;;;16.80;99.90;;;;;;5035058;28;19915;-84
2023/07/25 08:48:55;;;;;;;;;;;16.30;99.90;;;;;;5058189;28;19970;-86
2023/07/25 08:51:21;;;;;;;;;;;15.80;99.90;;;;;;5051510;28;20367;-86
2023/07/25 08:54:08;;;;;;;;;;;15.50;99.90;;;;;;5052100;28;19915;-86
2023/07/25 08:56:34;;;;;;;;;;;15.40;99.90;;;;;;5051806;28;20003;-85
2023/07/25 08:59:01;;;;;;;;;;;15.20;99.90;;;;;;5052514;28;19909;-87
2023/07/25 09:01:27;;;;;;;;;;;15.20;99.90;;;;;;5052053;28;19909;-86
2023/07/25 09:03:53;;;;;;;;;;;15.10;99.90;;;;;;5052004;28;20376;-85
2023/07/25 09:06:19;;;;;;;;;;;15.10;99.90;;;;;;5034145;28;20287;-85
2023/07/25 09:08:44;;;;;;;;;;;15.20;99.90;;;;;;5051202;28;19909;-86
2023/07/25 09:11:10;;;;;;;;;;;15.30;99.90;;;;;;5034333;28;19913;-84
2023/07/25 09:13:55;;;;;;;;;;;15.30;99.90;;;;;;5033745;28;19909;-84
2023/07/25 09:16:26;;;;;;;;;;;15.30;99.90;;;;;;5034212;28;20367;-85
2023/07/25 09:18:52;;;;;;;;;;;15.20;99.90;;;;;;5034790;28;19909;-85
2023/07/25 09:21:18;;;;;;;;;;;15.00;99.90;;;;;;5050972;28;20675;-85
2023/07/25 09:23:57;;;;;;;;;;;14.90;99.90;;;;;;5058471;28;19912;-86
2023/07/25 09:26:29;;;;;;;;;;;14.90;99.90;;;;;;5051805;28;19916;-87
2023/07/25 09:28:56;;;;;;;;;;;15.10;99.90;;;;;;5034911;28;19995;-85
2023/07/25 09:31:22;;;;;;;;;;;15.70;99.90;;;;;;5084852;28;20359;-85
2023/07/25 09:33:48;;;;;;;;;;;16.40;99.90;;;;;;5034355;28;19916;-86
2023/07/25 09:36:14;;;;;;;;;;;16.90;99.90;;;;;;5064355;28;19931;-86
2023/07/25 09:38:50;;;;;;;;;;;17.30;99.90;;;;;;5084534;28;19913;-86
2023/07/25 09:41:17;;;;;;;;;;;17.40;99.90;;;;;;5050569;28;19909;-86
2023/07/25 09:43:43;;;;;;;;;;;17.00;99.90;;;;;;5047564;28;20402;-85
2023/07/25 09:46:08;;;;;;;;;;;16.60;99.90;;;;;;5033584;28;19905;-86
2023/07/25 09:48:34;;;;;;;;;;;16.40;99.90;;;;;;5051608;28;19909;-86
2023/07/25 09:51:01;;;;;;;;;;;16.60;99.90;;;;;;5034672;28;20007;-86
2023/07/25 09:53:27;;;;;;;;;;;16.90;99.90;;;;;;5034501;28;19932;-86
2023/07/25 09:55:53;;;;;;;;;;;17.10;99.90;;;;;;5051581;28;20364;-86
2023/07/25 09:58:19;;;;;;;;;;;17.90;99.90;;;;;;5033051;28;19955;-86
2023/07/25 10:00:44;;;;;;;;;;;18.90;99.90;;;;;;5035447;28;19916;-85
2023/07/25 10:03:10;;;;;;;;;;;19.10;99.90;;;;;;5033926;28;20271;-86
2023/07/25 10:05:43;;;;;;;;;;;18.80;99.90;;;;;;5068358;28;19908;-86
2023/07/25 10:08:10;;;;;;;;;;;18.80;99.90;;;;;;5051905;28;20003;-86
2023/07/25 10:10:35;;;;;;;;;;;19.00;99.90;;;;;;5085436;28;19908;-86
2023/07/25 10:13:01;;;;;;;;;;;18.70;99.90;;;;;;5051927;28;19957;-86
2023/07/25 10:15:26;;;;;;;;;;;18.10;99.90;;;;;;5051962;28;19917;-85
2023/07/25 10:17:59;;;;;;;;;;;17.60;99.90;;;;;;5035061;28;19912;-86
2023/07/25 10:20:25;;;;;;;;;;;17.00;99.90;;;;;;5051315;28;20378;-86
2023/07/25 10:29:49;;;;;;;;;;;14.80;99.90;;;;;;5049848;28;19915;-85
2023/07/25 10:32:15;;;;;;;;;;;14.60;99.90;;;;;;5051920;28;19915;-86
2023/07/25 10:34:47;;;;;;;;;;;14.70;99.90;;;;;;5038068;28;20345;-86
2023/07/25 10:37:20;;;;;;;;;;;14.70;99.90;;;;;;5038216;28;19913;-86
2023/07/25 10:39:45;;;;;;;;;;;14.70;99.90;;;;;;5064841;28;19959;-86
2023/07/25 10:42:18;;;;;;;;;;;14.50;99.90;;;;;;5038510;28;19909;-86
2023/07/25 10:44:43;;;;;;;;;;;14.60;99.90;;;;;;5050273;28;19971;-86
2023/07/25 10:47:28;;;;;;;;;;;14.60;99.90;;;;;;5070935;28;19913;-87
2023/07/25 10:50:19;;;;;;;;;;;14.60;99.90;;;;;;5045465;28;19916;-87
2023/07/25 10:52:45;;;;;;;;;;;14.60;99.90;;;;;;5045728;28;19913;-87
2023/07/25 10:55:20;;;;;;;;;;;14.50;99.90;;;;;;5037132;28;19915;-87
2023/07/25 10:58:12;;;;;;;;;;;14.50;99.90;;;;;;5037387;28;19940;-87
2023/07/25 11:00:38;;;;;;;;;;;14.60;99.90;;;;;;5060056;28;20355;-87
2023/07/25 11:03:24;;;;;;;;;;;14.70;99.90;;;;;;5054239;28;19927;-88
2023/07/25 11:05:49;;;;;;;;;;;14.70;99.90;;;;;;5044962;28;19923;-88
2023/07/25 11:08:15;;;;;;;;;;;14.80;99.90;;;;;;5037650;28;19909;-88
2023/07/25 11:10:42;;;;;;;;;;;14.90;99.90;;;;;;5054118;28;20295;-87
2023/07/25 11:13:07;;;;;;;;;;;15.30;99.90;;;;;;5037670;28;20355;-87
2023/07/25 11:15:33;;;;;;;;;;;15.90;99.90;;;;;;5052097;28;20004;-86
2023/07/25 11:17:58;;;;;;;;;;;16.00;99.90;;;;;;5050330;28;19916;-87
2023/07/25 11:20:24;;;;;;;;;;;16.00;99.90;;;;;;5036636;28;19959;-87
2023/07/25 11:23:08;;;;;;;;;;;16.00;99.90;;;;;;5037240;28;19913;-86
2023/07/25 11:25:34;;;;;;;;;;;16.00;99.90;;;;;;5036726;28;19942;-86
2023/07/25 11:28:00;;;;;;;;;;;16.00;99.90;;;;;;5052625;28;20007;-87
2023/07/25 11:30:25;;;;;;;;;;;15.90;99.90;;;;;;5053060;28;19909;-87
2023/07/25 11:32:52;;;;;;;;;;;16.00;99.90;;;;;;5054429;28;19922;-87
2023/07/25 11:35:24;;;;;;;;;;;16.10;99.90;;;;;;5086242;28;19966;-87
2023/07/25 11:37:57;;;;;;;;;;;16.00;99.90;;;;;;5052128;28;19990;-86
2023/07/25 11:40:25;;;;;;;;;;;16.00;99.90;;;;;;5055151;28;19978;-87
2023/07/25 11:42:51;;;;;;;;;;;15.90;99.90;;;;;;5039346;28;20591;-87
2023/07/25 11:45:22;;;;;;;;;;;16.00;99.90;;;;;;5048016;28;19909;-87
2023/07/25 11:47:51;;;;;;;;;;;16.00;99.90;;;;;;5062488;28;19916;-86
2023/07/25 11:50:18;;;;;;;;;;;16.10;99.90;;;;;;5035133;28;19909;-86
2023/07/25 11:52:56;;;;;;;;;;;16.10;99.90;;;;;;5036883;28;19909;-88
2023/07/25 11:55:22;;;;;;;;;;;16.10;99.90;;;;;;5034302;28;19912;-87
2023/07/25 11:58:00;;;;;;;;;;;16.40;99.90;;;;;;5035709;28;19916;-84
2023/07/25 12:00:37;;;;;;;;;;;16.20;99.90;;;;;;5048536;28;19988;-86
2023/07/25 12:03:03;;;;;;;;;;;15.80;99.90;;;;;;5073453;28;19916;-86
2023/07/25 12:05:29;;;;;;;;;;;15.70;99.90;;;;;;5033435;28;20356;-87
2023/07/25 12:08:02;;;;;;;;;;;15.50;99.90;;;;;;5036065;28;20383;-87
2023/07/25 12:10:29;;;;;;;;;;;15.60;99.90;;;;;;5035016;28;19909;-86
2023/07/25 12:12:55;;;;;;;;;;;15.60;99.90;;;;;;5052569;28;19915;-87
2023/07/25 12:15:22;;;;;;;;;;;15.50;99.90;;;;;;5050981;28;19956;-86
2023/07/25 12:17:47;;;;;;;;;;;15.30;99.90;;;;;;5033906;28;19913;-86
2023/07/25 12:20:17;;;;;;;;;;;15.30;99.90;;;;;;5053076;28;19916;-86
2023/07/25 12:22:43;;;;;;;;;;;15.30;99.90;;;;;;5051633;28;19908;-86
2023/07/25 12:25:09;;;;;;;;;;;15.10;99.90;;;;;;5064545;28;19917;-86
2023/07/25 12:27:43;;;;;;;;;;;15.00;99.90;;;;;;5051694;28;20371;-87
2023/07/25 12:30:08;;;;;;;;;;;15.00;99.90;;;;;;5046555;28;19959;-86
2023/07/25 12:32:34;;;;;;;;;;;14.90;99.90;;;;;;5036014;28;19947;-87
2023/07/25 12:35:03;;;;;;;;;;;15.00;99.90;;;;;;5035536;28;19917;-86
2023/07/25 12:37:28;;;;;;;;;;;15.20;99.90;;;;;;5050065;28;19913;-86
2023/07/25 12:39:54;;;;;;;;;;;15.20;99.90;;;;;;5052599;28;19962;-86
2023/07/25 12:42:19;;;;;;;;;;;15.30;99.90;;;;;;5051176;28;20015;-86
2023/07/25 12:44:45;;;;;;;;;;;15.40;99.90;;;;;;5044998;28;19909;-85
2023/07/25 12:47:10;;;;;;;;;;;15.50;99.90;;;;;;5081273;28;19908;-86
2023/07/25 12:49:36;;;;;;;;;;;15.70;99.90;;;;;;5047300;28;19982;-86
2023/07/25 12:52:02;;;;;;;;;;;15.90;99.90;;;;;;5051725;28;19912;-86
2023/07/25 12:54:27;;;;;;;;;;;16.00;99.90;;;;;;5048560;28;19991;-85
2023/07/25 12:56:53;;;;;;;;;;;16.20;99.90;;;;;;5051998;28;19920;-85
2023/07/25 12:59:18;;;;;;;;;;;16.30;99.90;;;;;;5051930;28;20582;-85
2023/07/25 13:01:44;;;;;;;;;;;16.70;99.90;;;;;;5045121;28;19915;-85
2023/07/25 13:04:09;;;;;;;;;;;16.90;99.90;;;;;;5048220;28;19963;-85
2023/07/25 13:06:35;;;;;;;;;;;17.40;99.90;;;;;;5079827;28;19912;-85
2023/07/25 13:09:01;;;;;;;;;;;17.10;99.90;;;;;;5082495;28;19908;-85
2023/07/25 13:14:55;;;;;;;;;;;17.10;99.90;;;;;;5038698;28;19955;-85
2023/07/25 13:17:20;;;;;;;;;;;17.30;99.90;;;;;;5064513;28;19955;-85
2023/07/25 13:19:46;;;;;;;;;;;17.70;99.90;;;;;;5068576;28;19909;-85
2023/07/25 13:22:11;;;;;;;;;;;17.80;99.90;;;;;;5053240;28;19909;-84
2023/07/25 13:24:37;;;;;;;;;;;17.90;99.90;;;;;;5035255;28;20034;-85
2023/07/25 13:27:03;;;;;;;;;;;17.80;99.90;;;;;;5051981;28;19904;-85
2023/07/25 13:29:29;;;;;;;;;;;18.00;99.90;;;;;;5051888;28;20427;-85
2023/07/25 13:31:54;;;;;;;;;;;18.20;99.90;;;;;;5052152;28;20061;-85
2023/07/25 13:34:20;;;;;;;;;;;18.40;99.90;;;;;;5051715;28;19912;-85
2023/07/25 13:36:46;;;;;;;;;;;18.40;99.90;;;;;;5085407;28;19956;-85
2023/07/25 13:39:11;;;;;;;;;;;19.00;99.90;;;;;;5035658;28;19915;-85
2023/07/25 13:41:37;;;;;;;;;;;19.40;99.90;;;;;;5051661;28;20310;-85
2023/07/25 13:44:03;;;;;;;;;;;19.90;99.90;;;;;;5051812;28;19931;-87
2023/07/25 13:46:50;;;;;;;;;;;20.20;99.90;;;;;;5052236;28;19912;-85
2023/07/25 13:49:16;;;;;;;;;;;20.60;99.90;;;;;;5035008;28;19908;-85
2023/07/25 13:51:42;;;;;;;;;;;20.90;99.90;;;;;;5047477;28;19970;-85
2023/07/25 13:54:08;;;;;;;;;;;20.70;99.90;;;;;;5034572;28;19967;-83
2023/07/25 13:56:33;;;;;;;;;;;20.40;99.90;;;;;;5051211;28;19912;-85
2023/07/25 14:02:28;;;;;;;;;;;19.30;99.90;;;;;;5054261;28;19915;-85
2023/07/25 14:04:53;;;;;;;;;;;18.60;99.90;;;;;;5041318;28;19917;-85
2023/07/25 14:07:19;;;;;;;;;;;18.20;99.90;;;;;;5055182;28;19912;-85
2023/07/25 14:09:45;;;;;;;;;;;17.80;99.90;;;;;;5054358;28;19952;-85
2023/07/25 14:12:10;;;;;;;;;;;17.30;99.90;;;;;;5038227;28;19915;-85
2023/07/25 14:14:36;;;;;;;;;;;16.80;99.90;;;;;;5056572;28;19975;-86
2023/07/25 14:17:03;;;;;;;;;;;16.50;99.90;;;;;;5072265;28;19913;-85
2023/07/25 14:19:29;;;;;;;;;;;16.30;99.90;;;;;;5039111;28;20283;-86
2023/07/25 14:25:23;;;;;;;;;;;16.50;99.90;;;;;;5068571;28;19916;-86
2023/07/25 14:27:48;;;;;;;;;;;16.60;99.90;;;;;;5060388;28;20271;-86
2023/07/25 14:30:14;;;;;;;;;;;16.80;99.90;;;;;;5039177;28;19905;-86
2023/07/25 14:32:40;;;;;;;;;;;16.70;99.90;;;;;;5058381;28;19978;-86
2023/07/25 14:35:05;;;;;;;;;;;16.70;99.90;;;;;;5038975;28;19920;-86